Time;durP1;ratioP1;P1;durP2;ratioP2;P2;SDS_P1;SDS_P2;PMS_P1;PMS_P2;Temp;Humidity;BMP_temperature;BMP_pressure;BME280_temperature;BME280_humidity;BME280_pressure;Samples;Min_cycle;Max_cycle;Signal;HPM_P1;HPM_P2
2023/02/08 00:01:38;;;;;;;61.83;24.77;;;;;;;-4.26;100.00;103262.03;5016263;28;19953;-77
2023/02/08 00:04:04;;;;;;;58.10;24.42;;;;;;;-4.36;100.00;103269.00;5033021;28;20421;-75
2023/02/08 00:06:29;;;;;;;;;;;;;;;-4.35;100.00;103278.56;5015083;28;20067;-75
2023/02/08 00:08:55;;;;;;;59.85;25.90;;;;;;;-4.38;100.00;103282.91;5030660;28;20443;-76
2023/02/08 00:11:20;;;;;;;;;;;;;;;-4.37;100.00;103288.13;5031034;28;20489;-77
2023/02/08 00:13:45;;;;;;;61.67;23.23;;;;;;;-4.43;100.00;103287.28;5029470;28;19916;-77
2023/02/08 00:16:12;;;;;;;;;;;;;;;-4.46;100.00;103282.94;5031528;28;20041;-76
2023/02/08 00:18:37;;;;;;;66.85;27.40;;;;;;;-4.68;100.00;103259.53;5012944;28;19963;-78
2023/02/08 00:21:10;;;;;;;65.25;26.00;;;;;;;-4.50;100.00;103299.44;5014114;28;20053;-77
2023/02/08 00:23:36;;;;;;;56.83;25.52;;;;;;;-4.51;100.00;103295.13;5027370;28;20434;-78
2023/02/08 00:26:02;;;;;;;63.53;24.50;;;;;;;-4.54;100.00;103302.94;5013854;28;20033;-77
2023/02/08 00:28:27;;;;;;;60.33;24.55;;;;;;;-4.58;100.00;103302.09;5052631;28;20076;-78
2023/02/08 00:30:52;;;;;;;;;;;;;;;-4.55;100.00;103303.81;5029436;28;20120;-76
2023/02/08 00:33:18;;;;;;;;;;;;;;;-4.60;100.00;103306.44;5048371;28;19964;-78
2023/02/08 00:35:43;;;;;;;67.97;26.33;;;;;;;-4.46;100.00;103322.06;5028712;28;19964;-77
2023/02/08 00:38:08;;;;;;;;;;;;;;;-4.41;100.00;103341.16;5030887;28;20063;-77
2023/02/08 00:40:34;;;;;;;56.60;23.63;;;;;;;-4.55;100.00;103322.94;5029699;28;20457;-76
2023/02/08 00:42:59;;;;;;;;;;;;;;;-4.54;100.00;103315.97;5031145;28;20337;-75
2023/02/08 00:45:24;;;;;;;55.83;25.57;;;;;;;-4.65;100.00;103297.75;5030103;28;20404;-75
2023/02/08 00:47:50;;;;;;;;;;;;;;;-4.57;100.00;103311.63;5029287;28;20280;-77
2023/02/08 00:50:15;;;;;;;68.07;27.60;;;;;;;-4.51;100.00;103323.81;5011204;28;19921;-77
2023/02/08 00:52:40;;;;;;;;;;;;;;;-4.52;100.00;103322.94;5018093;28;20444;-78
2023/02/08 00:55:07;;;;;;;52.28;23.30;;;;;;;-4.58;100.00;103327.28;5033208;28;19912;-76
2023/02/08 00:57:32;;;;;;;67.07;25.77;;;;;;;-4.62;100.00;103329.03;5012506;28;20029;-77
2023/02/08 00:59:58;;;;;;;63.42;25.00;;;;;;;-4.64;100.00;103317.72;5029308;28;20087;-77
2023/02/08 01:02:24;;;;;;;;;;;;;;;-4.63;100.00;103316.00;5029584;28;20040;-76
2023/02/08 01:04:50;;;;;;;58.47;24.40;;;;;;;-4.77;100.00;103288.22;5012389;28;20004;-76
2023/02/08 01:07:15;;;;;;;55.35;23.20;;;;;;;-4.78;100.00;103291.66;5012570;28;20027;-78
2023/02/08 01:09:41;;;;;;;54.78;24.27;;;;;;;-4.87;100.00;103281.25;5027771;28;20041;-78
2023/02/08 01:12:07;;;;;;;;;;;;;;;-4.78;100.00;103294.28;5012437;28;20033;-78
2023/02/08 01:14:32;;;;;;;59.53;24.33;;;;;;;-4.81;100.00;103280.41;5045361;28;19916;-77
2023/02/08 01:16:58;;;;;;;;;;;;;;;-4.80;100.00;103283.00;5015920;28;20051;-77
2023/02/08 01:19:23;;;;;;;61.97;25.10;;;;;;;-4.79;100.00;103276.91;5013138;28;19920;-78
2023/02/08 01:21:48;;;;;;;;;;;;;;;-4.69;100.00;103296.88;5011462;28;20149;-78
2023/02/08 01:24:15;;;;;;;63.83;23.83;;;;;;;-4.64;100.00;103299.47;5011812;28;19917;-78
2023/02/08 01:26:40;;;;;;;;;;;;;;;-4.62;100.00;103300.34;5027651;28;20037;-77
2023/02/08 01:29:07;;;;;;;60.45;24.33;;;;;;;-4.65;100.00;103302.09;5029136;28;19913;-76
2023/02/08 01:31:37;;;;;;;58.10;24.50;;;;;;;-4.70;100.00;103295.16;5011580;28;20059;-76
2023/02/08 01:34:04;;;;;;;56.20;23.23;;;;;;;-4.75;100.00;103281.25;5045345;28;20491;-76
2023/02/08 01:36:30;;;;;;;60.20;23.85;;;;;;;-4.80;100.00;103266.47;5027787;28;20045;-75
2023/02/08 01:38:56;;;;;;;55.70;24.38;;;;;;;-4.93;100.00;103256.06;5045041;28;20063;-76
2023/02/08 01:41:35;;;;;;;63.80;26.80;;;;;;;-4.87;100.00;103268.22;5027476;28;20036;-77
2023/02/08 01:44:08;;;;;;;61.10;25.35;;;;;;;-4.88;100.00;103262.16;5040367;28;20565;-76
2023/02/08 01:46:38;;;;;;;57.03;24.42;;;;;;;-4.91;100.00;103256.09;5027022;28;20032;-76
2023/02/08 01:49:09;;;;;;;57.78;23.27;;;;;;;-4.95;100.00;103251.75;5028311;28;20047;-75
2023/02/08 01:51:47;;;;;;;63.72;26.80;;;;;;;-5.02;100.00;103231.78;5027007;28;20037;-76
2023/02/08 01:54:15;;;;;;;52.85;24.52;;;;;;;-5.07;100.00;103228.31;5011761;28;20033;-77
2023/02/08 01:56:44;;;;;;;62.95;28.98;;;;;;;-5.02;100.00;103226.56;5026687;28;20541;-76
2023/02/08 01:59:16;;;;;;;57.97;24.63;;;;;;;-5.13;100.00;103217.03;5011374;28;20044;-77
2023/02/08 02:01:44;;;;;;;54.75;24.90;;;;;;;-5.14;100.00;103224.84;5011012;28;20501;-77
2023/02/08 02:04:10;;;;;;;54.97;23.90;;;;;;;-5.18;100.00;103215.28;5011525;28;20036;-77
2023/02/08 02:06:39;;;;;;;;;;;;;;;-5.18;100.00;103218.75;5030047;28;20401;-77
2023/02/08 02:09:14;;;;;;;64.57;23.83;;;;;;;-5.21;100.00;103208.34;5045598;28;20286;-75
2023/02/08 02:11:41;;;;;;;53.97;22.02;;;;;;;-5.27;100.00;103202.25;5025770;28;20041;-75
2023/02/08 02:14:07;;;;;;;54.22;23.08;;;;;;;-5.31;100.00;103202.28;5027533;28;20033;-77
2023/02/08 02:16:32;;;;;;;;;;;;;;;-5.26;100.00;103212.69;5010620;28;20041;-77
2023/02/08 02:18:57;;;;;;;;;;;;;;;-5.28;100.00;103217.03;5027909;28;20011;-77
2023/02/08 02:21:47;;;;;;;58.50;23.87;;;;;;;-5.38;100.00;103205.75;5026869;28;20036;-78
2023/02/08 02:24:51;;;;;;;55.95;23.10;;;;;;;-5.43;100.00;103217.00;5004783;28;20275;-78
2023/02/08 02:27:19;;;;;;;66.70;26.17;;;;;;;-5.41;100.00;103228.28;5027344;28;20071;-77
2023/02/08 02:30:10;;;;;;;65.50;27.75;;;;;;;-5.25;100.00;103258.69;5028823;28;20037;-74
2023/02/08 02:32:51;;;;;;;55.42;24.73;;;;;;;-5.34;100.00;103258.69;5015160;28;20036;-77
2023/02/08 02:35:34;;;;;;;70.13;28.90;;;;;;;-5.24;100.00;103283.88;5036089;28;20040;-76
2023/02/08 02:38:31;;;;;;;63.60;25.83;;;;;;;-5.34;100.00;103296.03;5022456;28;20474;-77
2023/02/08 02:44:22;;;;;;;55.50;24.42;;;;;;;-5.43;100.00;103296.00;5051947;28;20052;-75
2023/02/08 02:47:00;;;;;;;54.97;23.85;;;;;;;-5.44;100.00;103290.78;5031819;28;20037;-77
2023/02/08 02:49:38;;;;;;;57.95;25.98;;;;;;;-5.40;100.00;103295.13;5030097;28;20044;-77
2023/02/08 02:52:15;;;;;;;62.22;26.73;;;;;;;-5.26;100.00;103314.25;5024960;28;20044;-75
2023/02/08 02:54:48;;;;;;;57.53;25.02;;;;;;;-5.22;100.00;103323.81;5031049;28;20130;-77
2023/02/08 02:57:19;;;;;;;55.55;25.40;;;;;;;-5.27;100.00;103322.06;5030378;28;20060;-74
2023/02/08 02:59:45;;;;;;;61.45;25.85;;;;;;;-5.37;100.00;103306.41;5029396;28;20502;-74
2023/02/08 03:02:11;;;;;;;62.90;25.52;;;;;;;-5.31;100.00;103308.19;5030474;28;20063;-76
2023/02/08 03:04:37;;;;;;;64.80;26.23;;;;;;;-5.28;100.00;103315.97;5012214;28;20033;-76
2023/02/08 03:07:02;;;;;;;;;;;;;;;-5.30;100.00;103312.50;5010643;28;20044;-78
2023/02/08 03:09:56;;;;;;;53.30;22.90;;;;;;;-5.34;100.00;103310.75;5028602;28;20306;-77
2023/02/08 03:12:53;;;;;;;59.05;23.90;;;;;;;-5.30;100.00;103317.72;5027179;28;20147;-76
2023/02/08 03:15:42;;;;;;;57.55;24.55;;;;;;;-5.27;100.00;103311.63;5026772;28;20041;-74
2023/02/08 03:18:24;;;;;;;61.25;24.42;;;;;;;-5.34;100.00;103305.53;5028667;28;20041;-76
2023/02/08 03:21:11;;;;;;;59.00;24.58;;;;;;;-5.24;100.00;103306.47;5028329;28;20162;-77
2023/02/08 03:23:46;;;;;;;63.45;25.60;;;;;;;-5.09;100.00;103307.31;5014983;28;20041;-75
2023/02/08 03:26:19;;;;;;;53.75;23.98;;;;;;;-4.97;100.00;103321.22;5012482;28;20371;-77
2023/02/08 03:29:08;;;;;;;59.45;26.58;;;;;;;-4.86;100.00;103319.50;5027647;28;20055;-76
2023/02/08 03:31:42;;;;;;;59.95;24.83;;;;;;;-4.71;100.00;103316.00;5045039;28;20386;-75
2023/02/08 03:34:12;;;;;;;60.00;24.27;;;;;;;-4.57;100.00;103311.63;5028753;28;20410;-77
2023/02/08 03:37:25;;;;;;;53.95;24.88;;;;;;;-4.61;100.00;103296.00;5026433;28;20041;-77
2023/02/08 03:39:57;;;;;;;48.53;21.08;;;;;;;-4.48;100.00;103290.75;4943413;28;20505;-76
2023/02/08 03:42:26;;;;;;;53.30;21.92;;;;;;;-4.38;100.00;103293.34;4949399;28;20556;-76
2023/02/08 03:45:15;;;;;;;50.83;22.27;;;;;;;-4.35;100.00;103275.09;4957709;28;20505;-75
2023/02/08 03:47:44;;;;;;;51.47;22.27;;;;;;;-4.33;100.00;103262.88;4945721;28;20039;-76
2023/02/08 03:50:16;;;;;;;58.00;23.20;;;;;;;-4.29;100.00;103256.81;4948905;28;20532;-76
2023/02/08 03:52:45;;;;;;;62.55;26.92;;;;;;;-4.32;100.00;103241.16;4943892;28;20042;-75
2023/02/08 03:55:18;;;;;;;49.08;22.10;;;;;;;-4.27;100.00;103235.03;4948316;28;20097;-75
2023/02/08 03:57:56;;;;;;;54.15;22.83;;;;;;;-4.30;100.00;103216.81;4948463;28;20063;-75
2023/02/08 04:00:22;;;;;;;58.58;23.65;;;;;;;-4.29;100.00;103204.63;4943656;28;20032;-75
2023/02/08 04:03:05;;;;;;;59.10;26.25;;;;;;;-4.27;100.00;103203.75;4948313;28;20102;-75
2023/02/08 04:05:31;;;;;;;54.42;23.85;;;;;;;-4.23;100.00;103199.41;4948236;28;20043;-75
2023/02/08 04:07:57;;;;;;;;;;;;;;;-4.18;100.00;103207.19;4962832;28;20078;-75
2023/02/08 04:10:22;;;;;;;49.58;21.48;;;;;;;-4.19;100.00;103192.41;4989901;28;19946;-75
2023/02/08 04:12:48;;;;;;;53.42;22.80;;;;;;;-4.29;100.00;103175.94;5027888;28;20042;-76
2023/02/08 04:15:13;;;;;;;;;;;;;;;-4.20;100.00;103177.63;5045232;28;20037;-76
2023/02/08 04:17:38;;;;;;;48.85;23.00;;;;;;;-4.19;100.00;103174.13;5044872;28;19971;-76
2023/02/08 04:20:04;;;;;;;;;;;;;;;-4.15;100.00;103178.47;5028807;28;20040;-75
2023/02/08 04:22:29;;;;;;;51.47;22.70;;;;;;;-4.05;100.00;103180.16;5044395;28;20335;-76
2023/02/08 04:24:55;;;;;;;;;;;;;;;-3.96;100.00;103168.78;5032872;28;20045;-76
2023/02/08 04:27:20;;;;;;;52.22;22.02;;;;;;;-4.04;100.00;103147.97;5039708;28;20038;-76
2023/02/08 04:29:45;;;;;;;;;;;;;;;-3.99;100.00;103137.50;5027094;28;20037;-76
2023/02/08 04:32:12;;;;;;;48.90;22.80;;;;;;;-4.10;100.00;103108.88;5049205;28;19917;-76
2023/02/08 04:34:38;;;;;;;53.65;24.30;;;;;;;-4.15;100.00;103106.28;5010430;28;20071;-75
2023/02/08 04:37:04;;;;;;;51.10;23.05;;;;;;;-4.17;100.00;103092.38;5027661;28;20044;-75
2023/02/08 04:39:29;;;;;;;;;;;;;;;-4.14;100.00;103101.97;5027666;28;20044;-76
2023/02/08 04:41:55;;;;;;;53.25;22.85;;;;;;;-4.21;100.00;103087.19;5026537;28;19950;-76
2023/02/08 04:44:20;;;;;;;;;;;;;;;-4.20;100.00;103081.13;5027872;28;20086;-76
2023/02/08 04:46:45;;;;;;;46.93;21.23;;;;;;;-4.32;100.00;103062.06;5026220;28;20354;-75
2023/02/08 04:49:11;;;;;;;;;;;;;;;-4.25;100.00;103074.19;5011720;28;20037;-76
2023/02/08 04:51:36;;;;;;;52.25;22.73;;;;;;;-4.27;100.00;103081.16;5020269;28;19924;-75
2023/02/08 04:54:02;;;;;;;;;;;;;;;-4.29;100.00;103072.47;5011254;28;20444;-74
2023/02/08 04:56:27;;;;;;;52.08;22.63;;;;;;;-4.34;100.00;103074.25;5027069;28;19924;-76
2023/02/08 04:58:53;;;;;;;;;;;;;;;-4.29;100.00;103084.66;5020484;28;20631;-75
2023/02/08 05:01:18;;;;;;;54.70;23.10;;;;;;;-4.27;100.00;103083.75;5044274;28;19921;-76
2023/02/08 05:03:43;;;;;;;;;;;;;;;-4.23;100.00;103081.16;5027094;28;20043;-75
2023/02/08 05:06:09;;;;;;;49.00;22.27;;;;;;;-4.26;100.00;103066.38;5027005;28;19927;-75
2023/02/08 05:08:34;;;;;;;46.00;21.33;;;;;;;-4.27;100.00;103070.72;5020189;28;20069;-76
2023/02/08 05:10:59;;;;;;;;;;;;;;;-4.36;100.00;103049.03;5027395;28;20032;-77
2023/02/08 05:13:25;;;;;;;53.23;21.53;;;;;;;-4.47;100.00;103030.88;5009411;28;20350;-76
2023/02/08 05:15:50;;;;;;;;;;;;;;;-4.48;100.00;103034.34;5027229;28;20041;-77
2023/02/08 05:18:15;;;;;;;45.87;19.17;;;;;;;-4.56;100.00;103033.53;5045987;28;20058;-76
2023/02/08 05:20:40;;;;;;;;;;;;;;;-4.58;100.00;103037.91;5012619;28;20079;-77
2023/02/08 05:23:06;;;;;;;52.30;22.43;;;;;;;-4.75;100.00;103020.63;5046275;28;19977;-76
2023/02/08 05:25:31;;;;;;;;;;;;;;;-4.71;100.00;103031.88;5011835;28;20040;-75
2023/02/08 05:27:58;;;;;;;49.88;22.35;;;;;;;-4.75;100.00;103038.84;5028303;28;19919;-76
2023/02/08 05:30:24;;;;;;;56.10;21.88;;;;;;;-4.82;100.00;103047.59;5028205;28;20045;-75
2023/02/08 05:32:49;;;;;;;50.92;22.83;;;;;;;-4.89;100.00;103045.88;5011394;28;20059;-76
2023/02/08 05:35:15;;;;;;;;;;;;;;;-4.97;100.00;103039.81;5028383;28;20079;-76
2023/02/08 05:37:40;;;;;;;51.30;21.47;;;;;;;-5.09;100.00;103031.19;5011443;28;19920;-76
2023/02/08 05:40:05;;;;;;;;;;;;;;;-5.06;100.00;103045.06;5012192;28;20037;-75
2023/02/08 05:42:31;;;;;;;50.13;21.80;;;;;;;-5.12;100.00;103054.63;5027677;28;19912;-75
2023/02/08 05:44:56;;;;;;;;;;;;;;;-5.15;100.00;103062.47;5011757;28;20043;-76
2023/02/08 05:47:21;;;;;;;49.60;19.40;;;;;;;-5.23;100.00;103063.38;5011224;28;19912;-75
2023/02/08 05:49:47;;;;;;;;;;;;;;;-5.21;100.00;103072.91;5027815;28;20284;-76
2023/02/08 05:52:12;;;;;;;45.60;20.67;;;;;;;-5.26;100.00;103069.44;5027520;28;19919;-75
2023/02/08 05:54:37;;;;;;;;;;;;;;;-5.28;100.00;103070.31;5028208;28;20299;-76
2023/02/08 05:57:03;;;;;;;58.10;23.17;;;;;;;-5.41;100.00;103051.25;5045645;28;19923;-77
2023/02/08 05:59:28;;;;;;;;;;;;;;;-5.43;100.00;103066.00;5011985;28;20144;-76
2023/02/08 06:01:54;;;;;;;49.85;21.88;;;;;;;-5.50;100.00;103067.78;5010710;28;19931;-75
2023/02/08 06:04:19;;;;;;;;;;;;;;;-5.51;100.00;103066.88;5028567;28;20037;-75
2023/02/08 06:06:44;;;;;;;47.53;22.10;;;;;;;-5.73;100.00;103042.63;5027821;28;20410;-76
2023/02/08 06:09:10;;;;;;;;;;;;;;;-5.67;100.00;103065.16;5012784;28;20064;-75
2023/02/08 06:11:35;;;;;;;;;;;;;;;-5.63;100.00;103076.47;5049024;28;19919;-76
2023/02/08 06:14:01;;;;;;;59.20;21.80;;;;;;;-5.75;100.00;103059.97;5031360;28;19919;-76
2023/02/08 06:16:27;;;;;;;51.97;20.77;;;;;;;-5.73;100.00;103078.22;5031669;28;20037;-76
2023/02/08 06:18:52;;;;;;;;;;;;;;;-5.63;100.00;103092.94;5049805;28;20207;-76
2023/02/08 06:21:18;;;;;;;;;;;;;;;-5.54;100.00;103111.16;5032051;28;20019;-76
2023/02/08 06:23:43;;;;;;;51.20;21.13;;;;;;;-5.65;100.00;103099.00;5031690;28;20380;-75
2023/02/08 06:26:08;;;;;;;;;;;;;;;-5.71;100.00;103092.09;5031749;28;20315;-75
2023/02/08 06:28:33;;;;;;;46.58;19.92;;;;;;;-5.73;100.00;103094.69;5014985;28;19916;-75
2023/02/08 06:30:59;;;;;;;;;;;;;;;-5.68;100.00;103099.03;5031359;28;20037;-74
2023/02/08 06:33:24;;;;;;;61.17;26.08;;;;;;;-5.76;100.00;103099.00;5031840;28;19920;-76
2023/02/08 06:35:50;;;;;;;;;;;;;;;-5.71;100.00;103115.50;5014888;28;20445;-76
2023/02/08 06:38:15;;;;;;;;;;;;;;;-5.73;100.00;103120.69;5049592;28;20429;-76
2023/02/08 06:40:41;;;;;;;62.78;23.77;;;;;;;-5.76;100.00;103112.00;5030390;28;19952;-75
2023/02/08 06:43:06;;;;;;;;;;;;;;;-5.76;100.00;103114.63;5031559;28;20040;-76
2023/02/08 06:45:32;;;;;;;55.40;23.63;;;;;;;-5.83;100.00;103102.47;5031087;28;19995;-76
2023/02/08 06:47:57;;;;;;;;;;;;;;;-5.77;100.00;103123.31;5015344;28;20029;-75
2023/02/08 06:50:22;;;;;;;47.75;21.40;;;;;;;-5.80;100.00;103112.91;5030891;28;19959;-76
2023/02/08 06:52:47;;;;;;;;;;;;;;;-5.82;100.00;103125.03;5015168;28;20870;-75
2023/02/08 06:55:13;;;;;;;51.47;20.27;;;;;;;-5.82;100.00;103123.28;5014732;28;20671;-76
2023/02/08 06:57:38;;;;;;;;;;;;;;;-5.85;100.00;103128.50;5050283;28;20033;-75
2023/02/08 07:00:05;;;;;;;50.45;21.77;;;;;;;-5.81;100.00;103137.16;5014688;28;20396;-74
2023/02/08 07:02:30;;;;;;;56.83;22.60;;;;;;;-5.83;100.00;103150.19;5013726;28;20071;-76
2023/02/08 07:04:55;;;;;;;;;;;;;;;-5.84;100.00;103138.03;5010960;28;20065;-75
2023/02/08 07:07:21;;;;;;;;;;;;;;;-5.84;100.00;103139.78;5009866;28;19988;-76
2023/02/08 07:09:46;;;;;;;53.60;22.90;;;;;;;-5.85;100.00;103130.22;5046772;28;20415;-76
2023/02/08 07:12:11;;;;;;;;;;;;;;;-5.86;100.00;103134.56;5046754;28;20035;-76
2023/02/08 07:14:41;;;;;;;55.92;22.02;;;;;;;-5.81;100.00;103140.63;5046117;28;19912;-76
2023/02/08 07:17:08;;;;;;;56.78;23.65;;;;;;;-5.84;100.00;103142.38;5028488;28;20448;-76
2023/02/08 07:19:33;;;;;;;53.38;22.73;;;;;;;-5.76;100.00;103166.66;5046141;28;20503;-76
2023/02/08 07:22:03;;;;;;;;;;;;;;;-5.66;100.00;103175.38;5028457;28;20494;-75
2023/02/08 07:24:29;;;;;;;49.15;22.05;;;;;;;-5.68;100.00;103164.94;5029401;28;20480;-75
2023/02/08 07:26:55;;;;;;;46.05;20.92;;;;;;;-5.47;100.00;103186.66;5011374;28;20059;-76
2023/02/08 07:29:20;;;;;;;;;;;;;;;-5.16;100.00;103217.00;5029834;28;20041;-76
2023/02/08 07:31:45;;;;;;;55.08;23.30;;;;;;;-5.07;100.00;103207.47;5046004;28;19916;-77
2023/02/08 07:34:10;;;;;;;;;;;;;;;-4.71;100.00;103229.97;5018175;28;20037;-76
2023/02/08 07:36:36;;;;;;;56.65;23.05;;;;;;;-4.25;100.00;103275.03;5046835;28;19908;-76
2023/02/08 07:39:01;;;;;;;;;;;;;;;-3.87;100.00;103304.47;5030675;28;20037;-77
2023/02/08 07:41:27;;;;;;;49.13;23.33;;;;;;;-3.56;100.00;103323.44;5047330;28;19920;-76
2023/02/08 07:43:52;;;;;;;;;;;;;;;-3.14;100.00;103357.16;5047925;28;20028;-76
2023/02/08 07:46:20;;;;;;;48.03;21.33;;;;;;;-2.94;100.00;103333.53;5014470;28;19924;-76
2023/02/08 07:48:48;;;;;;;47.85;21.05;;;;;;;-2.63;100.00;103300.97;5029379;28;20279;-75
2023/02/08 07:51:14;;;;;;;47.13;21.83;;;;;;;-2.16;100.00;103273.41;5047011;28;20047;-75
2023/02/08 07:53:39;;;;;;;34.88;17.92;;;;;;;-1.73;100.00;103228.34;5047418;28;20032;-76
2023/02/08 07:56:05;;;;;;;36.80;19.08;;;;;;;-1.19;100.00;103184.72;5046391;28;20124;-76
2023/02/08 07:58:31;;;;;;;42.13;20.42;;;;;;;-0.73;100.00;103095.50;5013527;28;20128;-76
2023/02/08 08:00:57;;;;;;;41.00;20.45;;;;;;;-0.27;100.00;102999.16;5021203;28;20115;-76
2023/02/08 08:03:23;;;;;;;43.15;19.65;;;;;;;0.10;100.00;102843.25;5029286;28;20043;-76
2023/02/08 08:05:48;;;;;;;40.40;19.73;;;;;;;0.27;100.00;102630.78;5028505;28;20042;-74
2023/02/08 08:08:14;;;;;;;37.65;19.90;;;;;;;0.91;100.00;102548.00;5029072;28;20044;-75
2023/02/08 08:10:39;;;;;;;37.47;19.07;;;;;;;1.45;100.00;102407.34;5028669;28;20075;-76
2023/02/08 08:13:05;;;;;;;39.65;20.63;;;;;;;1.71;100.00;102132.44;5047020;28;20271;-76
2023/02/08 08:15:30;;;;;;;42.67;20.33;;;;;;;1.96;100.00;101876.63;5012450;28;20041;-75
2023/02/08 08:17:56;;;;;;;40.17;20.27;;;;;;;2.16;100.00;101629.72;5011860;28;20706;-76
2023/02/08 08:20:22;;;;;;;41.33;21.95;;;;;;;1.98;100.00;101316.38;5012342;28;20592;-76
2023/02/08 08:22:47;;;;;;;43.17;22.48;;;;;;;1.32;100.00;100878.34;5044874;28;20098;-76
2023/02/08 08:25:13;;;;;;;38.72;20.50;;;;;;;1.32;100.00;100909.06;5011059;28;20032;-76
2023/02/08 08:27:39;;;;;;;41.45;21.30;;;;;;;1.38;100.00;100916.53;5025543;28;20040;-75
2023/02/08 08:30:06;;;;;;;43.53;22.02;;;;;;;0.36;100.00;100697.00;5027281;28;20044;-76
2023/02/08 08:32:31;;;;;;;47.40;23.52;;;;;;;-0.17;100.00;100797.47;5010471;28;20041;-76
2023/02/08 08:34:57;;;;;;;42.05;20.90;;;;;;;-0.48;100.00;100909.44;5044851;28;20086;-75
2023/02/08 08:37:22;;;;;;;49.80;20.63;;;;;;;-0.03;100.00;101012.72;5011100;28;20223;-76
2023/02/08 08:39:48;;;;;;;42.03;19.83;;;;;;;0.86;100.00;101248.47;5010174;28;20460;-76
2023/02/08 08:42:13;;;;;;;44.72;21.00;;;;;;;1.30;100.00;101177.47;5027382;28;20291;-75
2023/02/08 08:44:39;;;;;;;45.08;22.05;;;;;;;2.23;100.00;101156.81;5026478;28;20048;-76
2023/02/08 08:47:04;;;;;;;48.23;21.23;;;;;;;3.04;100.00;100963.28;5027221;28;20111;-77
2023/02/08 08:49:29;;;;;;;44.13;21.37;;;;;;;2.47;98.20;100601.78;5027618;28;20617;-76
2023/02/08 08:51:55;;;;;;;41.23;20.93;;;;;;;2.32;96.98;100505.44;5026706;28;20333;-77
2023/02/08 08:54:20;;;;;;;42.13;21.33;;;;;;;2.40;94.92;100373.94;5011108;28;20029;-77
2023/02/08 08:56:46;;;;;;;41.67;20.65;;;;;;;3.55;93.35;100577.72;5009887;28;20040;-76
2023/02/08 08:59:12;;;;;;;42.25;21.30;;;;;;;3.57;90.05;100259.03;5010897;28;20029;-76
2023/02/08 09:01:38;;;;;;;44.92;22.20;;;;;;;0.96;89.76;99569.84;5026296;28;20418;-76
2023/02/08 09:04:04;;;;;;;38.75;20.95;;;;;;;1.47;93.62;100390.59;5011009;28;20040;-76
2023/02/08 09:06:29;;;;;;;44.78;20.25;;;;;;;1.06;91.62;100049.19;5026826;28;20090;-76
2023/02/08 09:08:55;;;;;;;40.90;21.25;;;;;;;1.13;93.00;100294.09;5044437;28;20075;-77
2023/02/08 09:11:20;;;;;;;39.33;20.58;;;;;;;2.45;92.82;100721.41;5015803;28;20055;-76
2023/02/08 09:13:51;;;;;;;46.03;21.30;;;;;;;2.47;90.60;100454.19;5027260;28;20057;-77
2023/02/08 09:16:18;;;;;;;40.15;18.80;;;;;;;3.63;90.63;100759.28;5027071;28;20068;-76
2023/02/08 09:18:44;;;;;;;41.53;21.77;;;;;;;2.87;88.30;100269.16;5026969;28;20029;-75
2023/02/08 09:21:18;;;;;;;42.30;22.48;;;;;;;2.14;88.13;100093.31;5045428;28;20043;-77
2023/02/08 09:23:46;;;;;;;40.60;21.63;;;;;;;3.09;87.93;100401.94;5028555;28;20401;-76
2023/02/08 09:26:17;;;;;;;49.05;22.80;;;;;;;3.20;86.88;100341.25;5048239;28;20567;-76
2023/02/08 09:28:43;;;;;;;47.03;22.27;;;;;;;3.40;86.24;100357.25;5028721;28;20055;-76
2023/02/08 09:31:19;;;;;;;45.70;21.27;;;;;;;3.46;84.81;100196.56;5047759;28;20059;-78
2023/02/08 09:33:46;;;;;;;46.95;21.48;;;;;;;2.16;85.18;99922.88;5030837;28;20044;-77
2023/02/08 09:36:11;;;;;;;45.40;21.77;;;;;;;2.73;86.52;100385.44;5030775;28;20494;-76
2023/02/08 09:38:37;;;;;;;44.77;21.17;;;;;;;3.54;84.92;100439.63;5027654;28;20029;-76
2023/02/08 09:41:08;;;;;;;38.25;20.08;;;;;;;3.77;83.20;100308.34;5044077;28;20279;-76
2023/02/08 09:44:12;;;;;;;40.70;19.40;;;;;;;4.06;82.39;100262.78;5044225;28;20041;-80
2023/02/08 09:46:42;;;;;;;46.60;21.55;;;;;;;4.04;82.21;100306.97;4990102;28;20048;-78
2023/02/08 09:49:16;;;;;;;40.80;18.48;;;;;;;4.38;79.92;100027.41;5027243;28;20228;-76
2023/02/08 09:51:49;;;;;;;47.65;22.02;;;;;;;5.60;79.87;100479.47;5024564;28;20398;-76
2023/02/08 09:54:40;;;;;;;48.92;20.85;;;;;;;4.20;78.36;99876.66;5010571;28;20088;-76
2023/02/08 09:57:12;;;;;;;44.15;21.45;;;;;;;4.68;78.44;100168.31;5026251;28;20029;-76
2023/02/08 09:59:46;;;;;;;42.95;20.52;;;;;;;4.27;77.71;99923.66;5024537;28;20037;-75
2023/02/08 10:02:24;;;;;;;44.95;21.40;;;;;;;2.85;77.54;99482.81;5026079;28;20075;-77
2023/02/08 10:04:58;;;;;;;39.92;20.52;;;;;;;3.86;79.07;100237.22;5025788;28;20038;-77
2023/02/08 10:07:25;;;;;;;43.75;21.65;;;;;;;5.01;77.26;100333.75;5026744;28;20503;-78
2023/02/08 10:09:52;;;;;;;47.85;21.90;;;;;;;4.22;75.28;99692.38;5025372;28;20028;-76
2023/02/08 10:12:36;;;;;;;43.40;20.23;;;;;;;4.01;76.14;99845.00;5009864;28;20139;-76
2023/02/08 10:15:20;;;;;;;47.05;21.75;;;;;;;4.39;77.05;100184.16;5043633;28;20048;-78
2023/02/08 10:17:51;;;;;;;44.83;21.83;;;;;;;5.32;76.56;100434.25;5042700;28;20374;-76
2023/02/08 10:20:29;;;;;;;44.53;21.80;;;;;;;5.56;74.71;100192.88;5026637;28;20041;-77
2023/02/08 10:23:17;;;;;;;41.08;21.15;;;;;;;5.47;72.99;99905.97;5042436;28;20049;-77
2023/02/08 10:26:02;;;;;;;42.40;20.35;;;;;;;4.71;73.33;99789.09;5042219;28;20041;-77
2023/02/08 10:29:10;;;;;;;42.70;19.70;;;;;;;5.35;71.70;99827.78;5009776;28;20512;-76
2023/02/08 10:32:00;;;;;;;39.67;19.25;;;;;;;4.93;69.75;99375.22;5036750;28;20128;-77
2023/02/08 10:34:43;;;;;;;47.88;22.35;;;;;;;4.98;70.65;99601.22;5045781;28;20032;-77
2023/02/08 10:37:23;;;;;;;41.33;20.38;;;;;;;4.57;68.87;99216.81;5008082;28;20395;-75
2023/02/08 10:39:49;;;;;;;43.65;21.00;;;;;;;5.10;68.84;99474.00;5011352;28;20029;-75
2023/02/08 10:42:17;;;;;;;37.05;19.33;;;;;;;5.24;68.09;99436.34;5028540;28;20032;-76
2023/02/08 10:45:03;;;;;;;42.45;22.75;;;;;;;5.02;66.78;99134.38;5028792;28;20403;-77
2023/02/08 10:47:53;;;;;;;39.80;19.88;;;;;;;4.99;67.27;99284.66;5029848;28;20156;-75
2023/02/08 10:50:34;;;;;;;35.92;18.08;;;;;;;4.07;65.99;98792.41;5013421;28;20558;-74
2023/02/08 10:53:00;;;;;;;42.65;19.90;;;;;;;4.82;65.88;99181.50;5029917;28;20075;-76
2023/02/08 10:55:26;;;;;;;35.92;18.17;;;;;;;4.59;65.29;98945.22;5015590;28;20053;-77
2023/02/08 10:57:56;;;;;;;39.97;19.55;;;;;;;3.34;65.51;98597.09;5028761;28;20486;-76
2023/02/08 11:00:25;;;;;;;36.42;18.27;;;;;;;4.13;66.37;99159.69;5029613;28;20105;-76
2023/02/08 11:02:51;;;;;;;39.10;18.63;;;;;;;4.31;65.16;98989.66;5017783;28;20325;-76
2023/02/08 11:05:36;;;;;;;43.38;18.75;;;;;;;3.71;65.10;98756.66;5029363;28;20438;-77
2023/02/08 11:08:10;;;;;;;40.67;19.17;;;;;;;4.10;65.19;98992.81;5040390;28;20037;-76
2023/02/08 11:10:38;;;;;;;42.97;19.55;;;;;;;4.53;64.95;99173.19;5009882;28;20139;-76
2023/02/08 11:13:17;;;;;;;38.83;18.35;;;;;;;5.75;64.49;99574.84;5047223;28;20106;-76
2023/02/08 11:15:50;;;;;;;40.25;19.25;;;;;;;5.38;62.86;99073.13;5010575;28;20036;-77
2023/02/08 11:18:21;;;;;;;42.72;21.45;;;;;;;5.59;62.62;99100.88;5013848;28;20032;-76
2023/02/08 11:20:51;;;;;;;38.75;19.38;;;;;;;4.72;63.39;98891.81;5029646;28;20037;-77
2023/02/08 11:23:27;;;;;;;43.45;20.67;;;;;;;4.96;62.88;98999.31;5029162;28;20454;-76
2023/02/08 11:25:52;;;;;;;;;;;;;;;5.50;62.47;99155.66;5028381;28;20547;-77
2023/02/08 11:28:29;;;;;;;45.08;20.08;;;;;;;5.66;62.59;99256.22;5012740;28;19920;-76
2023/02/08 11:30:58;;;;;;;40.42;20.17;;;;;;;4.77;61.68;98736.13;5045848;28;20048;-77
2023/02/08 11:33:26;;;;;;;38.15;19.13;;;;;;;5.05;61.87;99025.59;5046137;28;20047;-76
2023/02/08 11:36:04;;;;;;;43.50;19.98;;;;;;;5.90;61.78;99385.19;5044659;28;20055;-76
2023/02/08 11:38:33;;;;;;;39.80;19.73;;;;;;;4.35;60.30;98373.56;5046625;28;20385;-77